Beacon, Iowa
Current Conditions -  °F | °C
As of 10:55 AM on Monday 22 Dec 2014 (Local Time) from KOOA Reporting Station
Light Rain Light Rain  
Wind Chill: 28°   Ceiling: 700
Heat Index: 37°   Visibility: 2mi
Dew Point: 35°   Wind: 13mph
Humidity: 95%   Direction: 130°SE
Pressure: 29.64"   Gusts: NA
Location:  41.28°N, 92.68°W
Report Text: KOOA 221655Z AUTO 13011KT 2SM -RA OVC007 03/02 A2964 RMK AO2 P0003 T00260018
Loading
Personal Weather Stations






























Interactive Weather Map New forecast layout! Learn more

10-Day Weather Forecast

Advertisements
Track Severe Weather on mobile